Axtell, UT

9:51 AM MDT on September 30, 2014 (GMT -0600)
MesoWest I-15 @ Scipio Summit UT US UTAH DOT | Change Station
CLOSE
Current Station
Personal Weather Station
Location: Scipio, UT
Elevation: 5959 ft
Nearby Weather Stations

Elev 5959 ft 39.20 °N, 112.17 °W | Updated 51 minutes ago

Partly Cloudy
Partly Cloudy
51 °F
Feels Like 51 °F
N
4
Wind Variable Wind from SW
Gusts 5.0 mph

Today
High -- | Low -- °F
--% Chance of Precip.
Yesterday
High -- | Low -- °F
Precip. -- in
7:22 AM 7:11 PM
Waxing Crescent, 37% visible
Pressure 29.96 in
Visibility 10.0 miles
Clouds Overcast 9000 ft
Dew Point 39 °F
Humidity 63%
Rainfall -999.00 in
Snow Depth 0 in , 4 in , 1 in
UV 0 out of 12
Pollen 4.10 out of 12
Air Quality Not available.
Flu Activity Not available.
METAR KPUC 301453Z AUTO 00000KT 10SM OVC090 10/07 A3002 RMK AO2 SLP146 T01000067 53002

More Conditions Fewer Conditions

Pressure 29.96 in
Visibility 10.0 miles
Clouds Overcast 9000 ft
Dew Point 39 °F
Humidity 63%
Rainfall -999.00 in
Snow Depth 0 in , 4 in , 1 in
UV 0 out of 12
Pollen 4.10 out of 12
Air Quality Not available.
Flu Activity Not available.
METAR KPUC 301453Z AUTO 00000KT 10SM OVC090 10/07 A3002 RMK AO2 SLP146 T01000067 53002

More Conditions Fewer Conditions

10-Day Weather Forecast

Almanac

Astronomy

Sep. 30, 2014 Rise Set
Actual Time 7:22 AM MDT 7:11 PM MDT
Civil Twilight 6:55 AM MDT 7:37 PM MDT
Nautical Twilight 6:24 AM MDT 8:08 PM MDT
Astronomical Twilight 5:53 AM MDT 8:39 PM MDT
Moon 1:31 PM MDT 11:47 PM MDT
Length of Visible Light 12h 42m
Length of Day
11h 48m
Tomorrow will be 2m 31s shorter.
Waxing Crescent, 37% of the Moon is Illuminated
Today
Waxing Crescent
Oct 1
First Quarter
Oct 8
Full
Oct 15
Last Quarter
Oct 23
New

Today's Extremes

State Highs State Lows

Community

WunderPhotos

Upload Photos

1,757,671 photos uploaded!

Nearby

Snow Depth

Station Depth Elevation
Snowbird 0 in 9640 ft
Brown Duck 4 in 10600 ft
Brighton 1 in 8750 ft
East Willow Creek 0 in 8250 ft
Buck Flat 0 in 9800 ft

Earthquake Activity

City Distance Mag. Time & Date
No recent earthquake activity has been reported nearby.
Minimum magnitude displayed is 2.5.

Coastal Water Temperatures

Place Temperature
No Stations Reporting

Nearby Weather Stations